Time;durP1;ratioP1;P1;durP2;ratioP2;P2;SDS_P1;SDS_P2;PMS_P1;PMS_P2;Temp;Humidity;BMP_temperature;BMP_pressure;BME280_temperature;BME280_humidity;BME280_pressure;Samples;Min_cycle;Max_cycle;Signal;HPM_P1;HPM_P2
2023/01/31 00:01:13;;;;;;;32.22;8.60;;;1.70;99.90;;;;;;5044535;28;20029;-62
2023/01/31 00:03:39;;;;;;;22.58;8.73;;;1.70;99.90;;;;;;5050763;28;20027;-62
2023/01/31 00:06:37;;;;;;;24.85;8.68;;;1.70;99.90;;;;;;5048394;28;20100;-62
2023/01/31 00:09:04;;;;;;;23.80;8.77;;;1.70;99.90;;;;;;5045465;28;20055;-62
2023/01/31 00:11:31;;;;;;;21.67;8.30;;;1.70;99.90;;;;;;5049473;28;20478;-62
2023/01/31 00:13:58;;;;;;;25.55;8.52;;;1.70;99.90;;;;;;5057701;28;20045;-63
2023/01/31 00:16:24;;;;;;;24.75;8.55;;;1.70;99.90;;;;;;5070409;28;20037;-62
2023/01/31 00:18:50;;;;;;;25.75;8.88;;;1.70;99.90;;;;;;5050465;28;20040;-63
2023/01/31 00:21:22;;;;;;;27.85;8.77;;;1.60;99.90;;;;;;5055700;28;20032;-64
2023/01/31 00:23:48;;;;;;;21.55;8.20;;;1.60;99.90;;;;;;5049813;28;20041;-63
2023/01/31 00:26:26;;;;;;;20.67;8.82;;;1.60;99.90;;;;;;5049145;28;20025;-62
2023/01/31 00:28:53;;;;;;;23.80;8.10;;;1.60;99.90;;;;;;5049021;28;20597;-62
2023/01/31 00:31:20;;;;;;;22.40;8.85;;;1.60;99.90;;;;;;5051102;28;20108;-63
2023/01/31 00:33:47;;;;;;;22.33;8.80;;;1.60;99.90;;;;;;5048627;28;20040;-63
2023/01/31 00:36:16;;;;;;;19.88;7.82;;;1.60;99.90;;;;;;5049912;28;20025;-63
2023/01/31 00:38:43;;;;;;;21.42;8.73;;;1.60;99.90;;;;;;5048107;28;20044;-62
2023/01/31 00:41:09;;;;;;;27.27;9.18;;;1.60;99.90;;;;;;5052126;28;20098;-63
2023/01/31 00:43:35;;;;;;;23.48;8.68;;;1.50;99.90;;;;;;5060373;28;20391;-63
2023/01/31 00:46:01;;;;;;;28.67;8.85;;;1.50;99.90;;;;;;5057630;28;20104;-63
2023/01/31 00:48:27;;;;;;;25.05;9.30;;;1.50;99.90;;;;;;5051149;28;20064;-63
2023/01/31 00:50:52;;;;;;;30.17;9.82;;;1.50;99.90;;;;;;5058358;28;20365;-63
2023/01/31 00:53:22;;;;;;;27.38;8.55;;;1.50;99.90;;;;;;5070026;28;20374;-63
2023/01/31 00:55:49;;;;;;;27.40;9.20;;;1.50;99.90;;;;;;5044823;28;20036;-63
2023/01/31 00:58:15;;;;;;;26.88;9.25;;;1.50;99.90;;;;;;5059012;28;20048;-63
2023/01/31 01:00:41;;;;;;;21.95;8.90;;;1.50;99.90;;;;;;5045291;28;20458;-62
2023/01/31 01:03:06;;;;;;;31.02;9.27;;;1.60;99.90;;;;;;5037857;28;20257;-62
2023/01/31 01:05:32;;;;;;;27.65;9.15;;;1.50;99.90;;;;;;5062354;28;20032;-62
2023/01/31 01:07:57;;;;;;;21.33;8.45;;;1.60;99.90;;;;;;5057366;28;20040;-63
2023/01/31 01:10:23;;;;;;;21.58;8.63;;;1.60;99.90;;;;;;5048116;28;20113;-64
2023/01/31 01:12:49;;;;;;;27.95;9.00;;;1.50;99.90;;;;;;5062753;28;21545;-64
2023/01/31 01:15:14;;;;;;;28.33;8.30;;;1.50;99.90;;;;;;5052205;28;20412;-63
2023/01/31 01:17:40;;;;;;;23.05;7.63;;;1.50;99.90;;;;;;5044904;28;20681;-62
2023/01/31 01:20:07;;;;;;;29.85;9.00;;;1.50;99.90;;;;;;5053652;28;20029;-63
2023/01/31 01:22:33;;;;;;;25.73;8.50;;;1.50;99.90;;;;;;5066180;28;20686;-63
2023/01/31 01:24:59;;;;;;;20.75;8.10;;;1.50;99.90;;;;;;5068448;28;20024;-62
2023/01/31 01:27:26;;;;;;;27.02;9.30;;;1.50;99.90;;;;;;5052516;28;20045;-63
2023/01/31 01:29:52;;;;;;;24.05;8.15;;;1.50;99.90;;;;;;5053614;28;20401;-62
2023/01/31 01:32:17;;;;;;;22.88;8.55;;;1.50;99.90;;;;;;5049237;28;20033;-63
2023/01/31 01:34:43;;;;;;;24.83;7.85;;;1.50;99.90;;;;;;5068812;28;20043;-62
2023/01/31 01:37:10;;;;;;;23.50;8.45;;;1.50;99.90;;;;;;5063824;28;20234;-62
2023/01/31 01:39:39;;;;;;;23.70;8.25;;;1.50;99.90;;;;;;5042597;28;20374;-63
2023/01/31 01:42:05;;;;;;;23.95;8.10;;;1.40;99.90;;;;;;5046316;28;20036;-62
2023/01/31 01:44:54;;;;;;;26.08;7.82;;;1.40;99.90;;;;;;5061776;28;20110;-62
2023/01/31 01:47:26;;;;;;;19.73;8.40;;;1.50;99.90;;;;;;5063643;28;20087;-63
2023/01/31 01:50:22;;;;;;;22.27;7.22;;;1.40;99.90;;;;;;5047150;28;20040;-63
2023/01/31 01:52:54;;;;;;;28.35;7.68;;;1.40;99.90;;;;;;5039207;28;20094;-61
2023/01/31 01:55:44;;;;;;;20.08;6.97;;;1.50;99.90;;;;;;5054361;28;20563;-62
2023/01/31 01:58:15;;;;;;;22.63;6.78;;;1.50;99.90;;;;;;5047604;28;20615;-63
2023/01/31 02:00:44;;;;;;;17.10;6.78;;;1.50;99.90;;;;;;5050035;28;20103;-63
2023/01/31 02:03:10;;;;;;;17.67;6.68;;;1.50;99.90;;;;;;5060772;28;20048;-63
2023/01/31 02:05:54;;;;;;;19.77;6.50;;;1.50;99.90;;;;;;5047452;28;20032;-63
2023/01/31 02:08:24;;;;;;;18.13;6.82;;;1.50;99.90;;;;;;5047490;28;20458;-63
2023/01/31 02:11:02;;;;;;;21.58;6.32;;;1.40;99.90;;;;;;5048220;28;20036;-62
2023/01/31 02:13:28;;;;;;;22.45;7.53;;;1.50;99.90;;;;;;5048991;28;20045;-62
2023/01/31 02:15:54;;;;;;;21.42;7.13;;;1.40;99.90;;;;;;5035060;28;20490;-63
2023/01/31 02:18:23;;;;;;;20.67;7.32;;;1.40;99.90;;;;;;5061398;28;20505;-62
2023/01/31 02:21:06;;;;;;;22.70;7.82;;;1.30;99.90;;;;;;5046760;28;20390;-63
2023/01/31 02:23:45;;;;;;;25.15;7.35;;;1.30;99.90;;;;;;5044595;28;20039;-62
2023/01/31 02:26:13;;;;;;;21.60;7.57;;;1.30;99.90;;;;;;5047319;28;20032;-63
2023/01/31 02:28:56;;;;;;;23.45;7.65;;;1.30;99.90;;;;;;5046864;28;20060;-62
2023/01/31 02:31:31;;;;;;;19.50;7.35;;;1.30;99.90;;;;;;5045135;28;20112;-62
2023/01/31 02:34:05;;;;;;;21.73;6.60;;;1.30;99.90;;;;;;5046462;28;20037;-62
2023/01/31 02:36:45;;;;;;;23.35;7.28;;;1.40;99.90;;;;;;5047987;28;20095;-62
2023/01/31 02:39:17;;;;;;;22.67;7.22;;;1.40;99.90;;;;;;5043657;28;20052;-63
2023/01/31 02:42:02;;;;;;;19.10;6.05;;;1.30;99.90;;;;;;5049495;28;20044;-63
2023/01/31 02:45:23;;;;;;;25.65;6.75;;;1.30;99.90;;;;;;5063650;28;20039;-62
2023/01/31 02:47:48;;;;;;;21.33;6.63;;;1.40;99.90;;;;;;5013918;28;20038;-63
2023/01/31 02:50:35;;;;;;;23.65;7.32;;;1.40;99.90;;;;;;5035568;28;20713;-63
2023/01/31 02:53:29;;;;;;;24.17;6.85;;;1.30;99.90;;;;;;5055818;28;20029;-63
2023/01/31 02:56:18;;;;;;;24.25;6.90;;;1.30;99.90;;;;;;5065380;28;20160;-64
2023/01/31 02:59:20;;;;;;;19.70;6.88;;;1.30;99.90;;;;;;5064655;28;20091;-63
2023/01/31 03:01:49;;;;;;;19.50;6.30;;;1.30;99.90;;;;;;5039525;28;20048;-62
2023/01/31 03:04:15;;;;;;;23.08;6.47;;;1.30;99.90;;;;;;5066031;28;20020;-63
2023/01/31 03:06:59;;;;;;;27.15;7.18;;;1.30;99.90;;;;;;5056646;28;20041;-63
2023/01/31 03:09:35;;;;;;;19.88;6.53;;;1.30;99.90;;;;;;5047259;28;20119;-63
2023/01/31 03:12:31;;;;;;;20.80;6.80;;;1.20;99.90;;;;;;5046446;28;20492;-62
2023/01/31 03:15:16;;;;;;;21.30;6.43;;;1.20;99.90;;;;;;5031305;28;20537;-63
2023/01/31 03:18:05;;;;;;;23.45;7.07;;;1.20;99.90;;;;;;5040251;28;20036;-62
2023/01/31 03:20:57;;;;;;;30.40;7.20;;;1.20;99.90;;;;;;5044349;28;20036;-63
2023/01/31 03:23:28;;;;;;;23.38;6.65;;;1.20;99.90;;;;;;5057637;28;20052;-62
2023/01/31 03:25:56;;;;;;;22.73;7.03;;;1.20;99.90;;;;;;5065893;28;20404;-63
2023/01/31 03:28:31;;;;;;;21.08;7.28;;;1.20;99.90;;;;;;5052047;28;20051;-64
2023/01/31 03:30:57;;;;;;;23.33;7.18;;;1.20;99.90;;;;;;5043100;28;20135;-63
2023/01/31 03:33:32;;;;;;;22.90;7.13;;;1.20;99.90;;;;;;5048376;28;20117;-63
2023/01/31 03:36:22;;;;;;;22.42;6.90;;;1.20;99.90;;;;;;5053738;28;20028;-63
2023/01/31 03:39:08;;;;;;;22.33;7.10;;;1.30;99.90;;;;;;5058508;28;20021;-63
2023/01/31 03:41:54;;;;;;;21.15;6.88;;;1.30;99.90;;;;;;5049427;28;20501;-63
2023/01/31 03:44:35;;;;;;;18.63;6.68;;;1.30;99.90;;;;;;5049881;28;20859;-63
2023/01/31 03:47:24;;;;;;;24.13;7.03;;;1.30;99.90;;;;;;5037436;28;20075;-63
2023/01/31 03:49:51;;;;;;;19.33;6.78;;;1.40;99.90;;;;;;5047499;28;20037;-62
2023/01/31 03:52:27;;;;;;;23.27;7.20;;;1.40;99.90;;;;;;5048196;28;20205;-63
2023/01/31 03:55:15;;;;;;;18.15;6.65;;;1.40;99.90;;;;;;5032610;28;20525;-63
2023/01/31 03:57:43;;;;;;;20.33;6.63;;;1.40;99.90;;;;;;5048320;28;20029;-63
2023/01/31 04:00:14;;;;;;;21.25;6.60;;;1.40;99.90;;;;;;5047008;28;20063;-62
2023/01/31 04:02:40;;;;;;;;;;;1.40;99.90;;;;;;5054455;28;20033;-63
2023/01/31 04:05:17;;;;;;;26.52;7.50;;;1.50;99.90;;;;;;5049077;28;19909;-63
2023/01/31 04:07:43;;;;;;;16.63;6.50;;;1.40;99.90;;;;;;5047983;28;20028;-63
2023/01/31 04:10:14;;;;;;;18.73;6.13;;;1.50;99.90;;;;;;5049045;28;20029;-63
2023/01/31 04:12:40;;;;;;;18.95;6.70;;;1.50;99.90;;;;;;5057281;28;20037;-63
2023/01/31 04:15:06;;;;;;;17.88;6.47;;;1.40;99.90;;;;;;5049144;28;20151;-63
2023/01/31 04:17:32;;;;;;;27.45;7.10;;;1.50;99.90;;;;;;5050431;28;20091;-64
2023/01/31 04:19:58;;;;;;;16.48;6.50;;;1.50;99.90;;;;;;5049160;28;20025;-64
2023/01/31 04:22:24;;;;;;;34.38;7.47;;;1.50;99.90;;;;;;5048550;28;20040;-63
2023/01/31 04:24:50;;;;;;;28.00;7.03;;;1.50;99.90;;;;;;5055106;28;20029;-63
2023/01/31 04:27:15;;;;;;;25.08;7.28;;;1.50;99.90;;;;;;5047907;28;20106;-64
2023/01/31 04:29:41;;;;;;;22.92;6.82;;;1.50;99.90;;;;;;5060128;28;20052;-63
2023/01/31 04:32:07;;;;;;;19.38;6.18;;;1.50;99.90;;;;;;5048109;28;20667;-62
2023/01/31 04:34:32;;;;;;;24.40;6.93;;;1.50;99.90;;;;;;5049663;28;20037;-63
2023/01/31 04:36:58;;;;;;;20.50;6.85;;;1.50;99.90;;;;;;5065202;28;20044;-63
2023/01/31 04:39:24;;;;;;;23.13;6.78;;;1.50;99.90;;;;;;5062480;28;20052;-62
2023/01/31 04:41:49;;;;;;;18.50;6.45;;;1.50;99.90;;;;;;5067252;28;20036;-63
2023/01/31 04:44:15;;;;;;;22.50;7.35;;;1.40;99.90;;;;;;5048590;28;20021;-63
2023/01/31 04:46:41;;;;;;;22.55;6.75;;;1.40;99.90;;;;;;5062649;28;20032;-63
2023/01/31 04:49:07;;;;;;;21.67;6.45;;;1.40;99.90;;;;;;5066523;28;20041;-62
2023/01/31 04:51:33;;;;;;;25.30;7.45;;;1.40;99.90;;;;;;5064284;28;20041;-64
2023/01/31 04:53:59;;;;;;;24.60;7.07;;;1.40;99.90;;;;;;5046652;28;20072;-62
2023/01/31 04:56:24;;;;;;;18.42;6.28;;;1.40;99.90;;;;;;5048923;28;20029;-63
2023/01/31 04:58:50;;;;;;;17.60;6.35;;;1.40;99.90;;;;;;5049425;28;20032;-63
2023/01/31 05:01:18;;;;;;;19.63;6.97;;;1.40;99.90;;;;;;5048871;28;20047;-63
2023/01/31 05:03:44;;;;;;;21.75;6.85;;;1.30;99.90;;;;;;5048477;28;20032;-63
2023/01/31 05:06:09;;;;;;;24.58;7.32;;;1.30;99.90;;;;;;5052600;28;20028;-63
2023/01/31 05:08:35;;;;;;;20.63;7.13;;;1.30;99.90;;;;;;5049603;28;20106;-64
2023/01/31 05:11:02;;;;;;;24.17;6.82;;;1.30;99.90;;;;;;5050300;28;20029;-63
2023/01/31 05:13:31;;;;;;;26.75;8.45;;;1.30;99.90;;;;;;5056358;28;20048;-64
2023/01/31 05:15:57;;;;;;;24.73;7.20;;;1.30;99.90;;;;;;5055174;28;20036;-62
2023/01/31 05:18:26;;;;;;;24.00;7.28;;;1.20;99.90;;;;;;5068616;28;20027;-63
2023/01/31 05:20:51;;;;;;;18.80;7.57;;;1.20;99.90;;;;;;5058315;28;20032;-63
2023/01/31 05:23:18;;;;;;;25.73;6.95;;;1.20;99.90;;;;;;5053389;28;20064;-62
2023/01/31 05:25:44;;;;;;;30.10;6.97;;;1.20;99.90;;;;;;5054863;28;20037;-63
2023/01/31 05:28:11;;;;;;;18.88;6.55;;;1.20;99.90;;;;;;5058845;28;20720;-62
2023/01/31 05:30:36;;;;;;;26.30;6.40;;;1.20;99.90;;;;;;5056907;28;20508;-63
2023/01/31 05:33:02;;;;;;;21.70;6.93;;;1.20;99.90;;;;;;5049933;28;20033;-63
2023/01/31 05:35:28;;;;;;;21.50;7.68;;;1.20;99.90;;;;;;5059714;28;20098;-63
2023/01/31 05:37:54;;;;;;;21.23;6.80;;;1.20;99.90;;;;;;5062193;28;20040;-65
2023/01/31 05:40:21;;;;;;;20.40;6.95;;;1.20;99.90;;;;;;5067919;28;20047;-63
2023/01/31 05:42:59;;;;;;;26.85;7.07;;;1.20;99.90;;;;;;5054123;28;20045;-63
2023/01/31 05:45:25;;;;;;;19.17;6.95;;;1.30;99.90;;;;;;5048182;28;20029;-63
2023/01/31 05:47:50;;;;;;;22.52;7.65;;;1.30;99.90;;;;;;5046827;28;20033;-63
2023/01/31 05:50:17;;;;;;;20.33;6.72;;;1.30;99.90;;;;;;5034519;28;20029;-64
2023/01/31 05:52:48;;;;;;;17.48;6.55;;;1.30;99.90;;;;;;5048391;28;20151;-64
2023/01/31 05:55:14;;;;;;;23.85;7.10;;;1.30;99.90;;;;;;5048204;28;20029;-62
2023/01/31 05:57:39;;;;;;;28.00;7.70;;;1.30;99.90;;;;;;5047075;28;20120;-64
2023/01/31 06:00:06;;;;;;;29.95;7.05;;;1.30;99.90;;;;;;5047287;28;20059;-64
2023/01/31 06:02:32;;;;;;;23.67;7.30;;;1.30;99.90;;;;;;5047841;28;20062;-63
2023/01/31 06:04:57;;;;;;;23.75;7.05;;;1.30;99.90;;;;;;5047756;28;20055;-64
2023/01/31 06:07:23;;;;;;;23.13;6.93;;;1.30;99.90;;;;;;5044328;28;20474;-63
2023/01/31 06:09:48;;;;;;;25.77;6.85;;;1.40;99.90;;;;;;5062538;28;20107;-62
2023/01/31 06:12:14;;;;;;;27.20;7.10;;;1.40;99.90;;;;;;5042226;28;20039;-62
2023/01/31 06:14:40;;;;;;;27.45;7.70;;;1.40;99.90;;;;;;5052224;28;20083;-62
2023/01/31 06:17:06;;;;;;;27.00;8.98;;;1.30;99.90;;;;;;5046771;28;20027;-63
2023/01/31 06:19:31;;;;;;;22.38;6.78;;;1.40;99.90;;;;;;5047242;28;20107;-62
2023/01/31 06:21:57;;;;;;;23.15;7.22;;;1.40;99.90;;;;;;5048089;28;20422;-62
2023/01/31 06:24:22;;;;;;;19.08;6.78;;;1.40;99.90;;;;;;5048821;28;20040;-62
2023/01/31 06:26:48;;;;;;;19.52;6.25;;;1.40;99.90;;;;;;5059590;28;20432;-63
2023/01/31 06:29:14;;;;;;;29.00;6.88;;;1.30;99.90;;;;;;5048437;28;20054;-62
2023/01/31 06:31:43;;;;;;;31.33;7.55;;;1.30;99.90;;;;;;5072660;28;20036;-62
2023/01/31 06:34:09;;;;;;;20.98;6.57;;;1.30;99.90;;;;;;5067142;28;20036;-63
2023/01/31 06:36:35;;;;;;;16.08;5.88;;;1.20;99.90;;;;;;5058531;28;20029;-62
2023/01/31 06:39:02;;;;;;;18.10;6.60;;;1.20;99.90;;;;;;5048571;28;20489;-62
2023/01/31 06:41:28;;;;;;;18.05;6.65;;;1.10;99.90;;;;;;5049522;28;20086;-62
2023/01/31 06:43:54;;;;;;;27.17;7.40;;;1.00;99.90;;;;;;5063231;28;20029;-62
2023/01/31 06:46:20;;;;;;;16.90;6.28;;;1.00;99.90;;;;;;5054090;28;20025;-62
2023/01/31 06:48:47;;;;;;;25.23;6.85;;;1.00;99.90;;;;;;5051072;28;20068;-62
2023/01/31 06:51:15;;;;;;;21.48;6.53;;;0.90;99.90;;;;;;5051006;28;20044;-63
2023/01/31 06:53:41;;;;;;;19.67;6.78;;;0.80;99.90;;;;;;5052134;28;20037;-62
2023/01/31 06:56:08;;;;;;;22.33;6.80;;;0.80;99.90;;;;;;5051633;28;20029;-63
2023/01/31 06:58:34;;;;;;;19.02;6.82;;;0.70;99.90;;;;;;5050362;28;20061;-61
2023/01/31 07:01:11;;;;;;;25.95;6.88;;;0.70;99.90;;;;;;5050624;28;20052;-63
2023/01/31 07:03:36;;;;;;;27.73;7.13;;;0.60;99.90;;;;;;5051696;28;20462;-62
2023/01/31 07:06:02;;;;;;;23.23;6.82;;;0.50;99.90;;;;;;5051920;28;20033;-62
2023/01/31 07:08:29;;;;;;;25.65;7.95;;;0.50;99.90;;;;;;5051136;28;20025;-62
2023/01/31 07:10:55;;;;;;;23.40;7.82;;;0.50;99.90;;;;;;5050392;28;20057;-62
2023/01/31 07:13:21;;;;;;;26.85;7.50;;;0.40;99.90;;;;;;5051016;28;20056;-62
2023/01/31 07:15:47;;;;;;;24.60;7.32;;;0.50;99.90;;;;;;5051431;28;20039;-62
2023/01/31 07:18:13;;;;;;;23.65;7.40;;;0.40;99.90;;;;;;5053441;28;20044;-62
2023/01/31 07:20:42;;;;;;;24.90;8.25;;;0.50;99.90;;;;;;5050047;28;20055;-62
2023/01/31 07:23:08;;;;;;;32.10;7.72;;;0.40;99.90;;;;;;5060207;28;20048;-61
2023/01/31 07:25:34;;;;;;;30.58;7.55;;;0.40;99.90;;;;;;5061094;28;20620;-62
2023/01/31 07:28:01;;;;;;;28.08;7.57;;;0.40;99.90;;;;;;5052763;28;20041;-62
2023/01/31 07:30:27;;;;;;;23.70;7.65;;;0.40;99.90;;;;;;5050432;28;20112;-62
2023/01/31 07:32:53;;;;;;;20.60;7.18;;;0.40;99.90;;;;;;5049601;28;20171;-62
2023/01/31 07:35:18;;;;;;;24.02;7.90;;;0.50;99.90;;;;;;5050081;28;20120;-62
2023/01/31 07:37:44;;;;;;;23.15;8.48;;;0.40;99.90;;;;;;5051090;28;20043;-62
2023/01/31 07:40:12;;;;;;;32.15;8.30;;;0.50;99.90;;;;;;5051036;28;20075;-63
2023/01/31 07:42:38;;;;;;;25.77;8.23;;;0.50;99.90;;;;;;5049480;28;20044;-61
2023/01/31 07:45:05;;;;;;;25.48;7.93;;;0.60;99.90;;;;;;5051277;28;20148;-62
2023/01/31 07:47:31;;;;;;;28.45;6.95;;;0.60;99.90;;;;;;5050393;28;20032;-61
2023/01/31 07:49:56;;;;;;;29.27;7.72;;;0.60;99.90;;;;;;5051110;28;20025;-60
2023/01/31 07:52:22;;;;;;;21.83;6.70;;;0.70;99.90;;;;;;5048651;28;20033;-62
2023/01/31 07:54:48;;;;;;;28.77;8.20;;;0.70;99.90;;;;;;5051067;28;20052;-62
2023/01/31 07:57:16;;;;;;;32.55;8.45;;;0.60;99.90;;;;;;5050575;28;20029;-62
2023/01/31 07:59:43;;;;;;;29.70;7.47;;;0.60;99.90;;;;;;5050910;28;20087;-62
2023/01/31 08:04:56;;;;;;;30.75;8.18;;;0.60;99.90;;;;;;5050880;28;20074;-62
2023/01/31 08:07:21;;;;;;;24.52;7.80;;;0.70;99.90;;;;;;5050007;28;20020;-62
2023/01/31 08:09:49;;;;;;;28.40;7.82;;;0.80;99.90;;;;;;5050828;28;20028;-61
2023/01/31 08:12:15;;;;;;;23.05;7.38;;;0.90;99.90;;;;;;5048940;28;20039;-62
2023/01/31 08:14:40;;;;;;;23.88;7.85;;;1.00;99.90;;;;;;5048475;28;20037;-62
2023/01/31 08:17:07;;;;;;;19.73;6.53;;;1.10;99.90;;;;;;5050615;28;20473;-61
2023/01/31 08:19:33;;;;;;;21.40;7.35;;;1.20;99.90;;;;;;5049883;28;20032;-62
2023/01/31 08:22:00;;;;;;;22.67;6.93;;;1.30;99.90;;;;;;5050586;28;20029;-62
2023/01/31 08:24:26;;;;;;;20.73;7.10;;;1.40;99.90;;;;;;5048272;28;20492;-62
2023/01/31 08:26:51;;;;;;;24.90;6.78;;;1.50;99.90;;;;;;5048709;28;20025;-62
2023/01/31 08:29:17;;;;;;;21.95;6.40;;;1.50;99.90;;;;;;5049655;28;20044;-61
2023/01/31 08:31:43;;;;;;;20.85;5.85;;;1.50;99.90;;;;;;5049897;28;20048;-62
2023/01/31 08:34:09;;;;;;;17.60;5.95;;;1.50;99.90;;;;;;5048746;28;20043;-61
2023/01/31 08:36:35;;;;;;;20.30;6.70;;;1.50;99.90;;;;;;5049763;28;20190;-62
2023/01/31 08:39:01;;;;;;;21.92;6.47;;;1.50;99.90;;;;;;5050060;28;20036;-62
2023/01/31 08:41:28;;;;;;;29.38;7.40;;;1.50;99.90;;;;;;5049181;28;20036;-62
2023/01/31 08:43:55;;;;;;;19.10;6.72;;;1.50;99.90;;;;;;5048936;28;20029;-62
2023/01/31 08:46:22;;;;;;;19.05;6.07;;;1.60;99.90;;;;;;5045536;28;20033;-62
2023/01/31 08:48:47;;;;;;;28.35;8.02;;;1.70;99.90;;;;;;5049975;28;20035;-62
2023/01/31 08:51:13;;;;;;;18.67;5.93;;;1.80;99.90;;;;;;5049717;28;20037;-61
2023/01/31 08:53:42;;;;;;;21.30;6.43;;;1.90;99.90;;;;;;5049339;28;20466;-62
2023/01/31 08:56:08;;;;;;;18.52;5.72;;;1.90;99.90;;;;;;5048615;28;20040;-61
2023/01/31 08:58:35;;;;;;;19.90;6.03;;;1.90;99.90;;;;;;5049155;28;20036;-62
2023/01/31 09:01:10;;;;;;;16.75;5.78;;;2.00;99.90;;;;;;5045347;28;20458;-60
2023/01/31 09:03:36;;;;;;;19.48;6.15;;;2.00;99.90;;;;;;5047744;28;20629;-62
2023/01/31 09:06:04;;;;;;;24.45;6.72;;;2.10;99.90;;;;;;5049753;28;20104;-62
2023/01/31 09:08:30;;;;;;;19.42;6.50;;;2.10;99.90;;;;;;5046394;28;20051;-62
2023/01/31 09:10:59;;;;;;;24.50;6.60;;;2.20;99.90;;;;;;5049365;28;20068;-62
2023/01/31 09:13:25;;;;;;;18.90;6.05;;;2.30;99.90;;;;;;5048555;28;20037;-62
2023/01/31 09:16:05;;;;;;;18.17;5.88;;;2.30;99.90;;;;;;5049189;28;20025;-62
2023/01/31 09:18:33;;;;;;;19.00;5.97;;;2.30;99.90;;;;;;5047380;28;20036;-61
2023/01/31 09:21:07;;;;;;;24.77;6.47;;;2.30;99.90;;;;;;5049363;28;20108;-61
2023/01/31 09:23:33;;;;;;;25.25;6.72;;;2.30;99.90;;;;;;5048591;28;20752;-61
2023/01/31 09:25:59;;;;;;;18.85;5.57;;;2.30;99.90;;;;;;5049274;28;20025;-62
2023/01/31 09:28:25;;;;;;;26.85;5.70;;;2.30;99.90;;;;;;5046649;28;20126;-62
2023/01/31 09:30:53;;;;;;;25.73;6.55;;;2.40;99.90;;;;;;5047842;28;20097;-62
2023/01/31 09:33:20;;;;;;;23.13;6.55;;;2.40;99.90;;;;;;5048660;28;20117;-63
2023/01/31 09:35:58;;;;;;;25.20;6.13;;;2.50;99.90;;;;;;5049123;28;20106;-61
2023/01/31 09:38:24;;;;;;;25.63;6.57;;;2.50;99.90;;;;;;5047811;28;20281;-62
2023/01/31 09:40:51;;;;;;;24.90;6.70;;;2.50;99.90;;;;;;5049078;28;20053;-60
2023/01/31 09:43:20;;;;;;;26.40;6.43;;;2.60;99.90;;;;;;5049252;28;20549;-63
2023/01/31 09:45:48;;;;;;;20.92;6.28;;;2.70;99.90;;;;;;5048746;28;20043;-61
2023/01/31 09:48:19;;;;;;;21.35;5.80;;;2.90;99.90;;;;;;5047106;28;20083;-61
2023/01/31 09:50:54;;;;;;;29.80;7.20;;;3.00;99.90;;;;;;5048583;28;20478;-61
2023/01/31 09:53:23;;;;;;;19.77;5.47;;;2.80;99.90;;;;;;5048267;28;20041;-61
2023/01/31 09:56:06;;;;;;;31.45;6.30;;;2.80;99.90;;;;;;5048919;28;20032;-62
2023/01/31 09:58:40;;;;;;;18.77;5.95;;;2.80;99.90;;;;;;5045192;28;20084;-62
2023/01/31 10:01:23;;;;;;;23.00;5.63;;;2.80;99.90;;;;;;5048822;28;20155;-62
2023/01/31 10:04:09;;;;;;;23.58;6.43;;;2.70;99.90;;;;;;5047559;28;20096;-62
2023/01/31 10:07:13;;;;;;;25.63;6.55;;;2.60;99.90;;;;;;5046874;28;20033;-61
2023/01/31 10:10:13;;;;;;;19.65;5.57;;;2.60;99.90;;;;;;5048040;28;20096;-61
2023/01/31 10:12:53;;;;;;;19.85;5.38;;;2.70;99.90;;;;;;5045968;28;20037;-61
2023/01/31 10:15:31;;;;;;;16.30;5.00;;;2.70;99.90;;;;;;5048400;28;20069;-62
2023/01/31 10:18:30;;;;;;;24.38;5.18;;;2.80;99.90;;;;;;5048374;28;20072;-61
2023/01/31 10:21:02;;;;;;;19.83;5.90;;;2.90;99.90;;;;;;5043382;28;20037;-63
2023/01/31 10:23:39;;;;;;;26.58;5.95;;;2.80;99.90;;;;;;5047044;28;20143;-62
2023/01/31 10:26:09;;;;;;;25.77;5.20;;;2.90;99.90;;;;;;5048456;28;20025;-61
2023/01/31 10:28:46;;;;;;;18.42;5.35;;;3.00;99.90;;;;;;5046509;28;20064;-62
2023/01/31 10:31:34;;;;;;;25.25;5.68;;;3.00;99.90;;;;;;5045660;28;20041;-62
2023/01/31 10:34:13;;;;;;;15.98;5.60;;;3.00;99.90;;;;;;5048522;28;20033;-60
2023/01/31 10:36:47;;;;;;;20.08;5.72;;;3.10;99.90;;;;;;5046500;28;20448;-62
2023/01/31 10:39:22;;;;;;;15.73;4.93;;;3.10;99.90;;;;;;5048867;28;20041;-63
2023/01/31 10:42:07;;;;;;;23.23;5.70;;;3.50;99.90;;;;;;5046817;28;20090;-62
2023/01/31 10:44:46;;;;;;;16.95;4.78;;;3.60;99.90;;;;;;5047674;28;20059;-62
2023/01/31 10:47:14;;;;;;;19.40;5.55;;;3.60;99.90;;;;;;5048428;28;20043;-62
2023/01/31 10:49:45;;;;;;;19.73;5.70;;;3.60;99.90;;;;;;5047390;28;20029;-61
2023/01/31 10:52:40;;;;;;;18.38;5.22;;;3.50;99.90;;;;;;5047032;28;20421;-61
2023/01/31 10:55:25;;;;;;;16.98;5.07;;;3.50;99.90;;;;;;5048404;28;20052;-61
2023/01/31 10:57:52;;;;;;;16.70;4.13;;;3.50;99.90;;;;;;5047973;28;20029;-61
2023/01/31 11:00:21;;;;;;;20.20;5.97;;;3.40;99.90;;;;;;5045581;28;20036;-60
2023/01/31 11:02:47;;;;;;;18.77;5.25;;;3.30;99.90;;;;;;5047630;28;20036;-60
2023/01/31 11:05:19;;;;;;;19.58;5.38;;;3.50;99.90;;;;;;5048175;28;20029;-62
2023/01/31 11:07:46;;;;;;;18.67;5.60;;;3.90;99.90;;;;;;5047217;28;20791;-58
2023/01/31 11:10:28;;;;;;;13.80;4.05;;;4.30;99.90;;;;;;5049919;28;20114;-62
2023/01/31 11:13:00;;;;;;;17.30;4.47;;;4.30;99.90;;;;;;5051695;28;20037;-62
2023/01/31 11:15:29;;;;;;;16.35;4.55;;;4.40;99.90;;;;;;5051272;28;20422;-63
2023/01/31 11:17:59;;;;;;;14.85;4.35;;;4.10;99.90;;;;;;5051696;28;20454;-62
2023/01/31 11:20:27;;;;;;;20.85;5.28;;;3.80;99.90;;;;;;5049896;28;20109;-62
2023/01/31 11:22:55;;;;;;;16.95;4.60;;;3.70;99.90;;;;;;5051646;28;20043;-61
2023/01/31 11:25:23;;;;;;;16.73;4.88;;;3.60;99.90;;;;;;5050303;28;20033;-62
2023/01/31 11:27:52;;;;;;;22.95;4.97;;;3.50;99.90;;;;;;5049569;28;20068;-62
2023/01/31 11:30:29;;;;;;;15.25;4.55;;;3.50;99.90;;;;;;5051575;28;20545;-62
2023/01/31 11:32:54;;;;;;;14.73;4.72;;;3.50;99.90;;;;;;5051426;28;20111;-62
2023/01/31 11:35:25;;;;;;;18.02;4.30;;;3.60;99.90;;;;;;5051537;28;20787;-62
2023/01/31 11:38:09;;;;;;;15.13;4.50;;;3.70;99.90;;;;;;5048992;28;20052;-62
2023/01/31 11:40:37;;;;;;;29.83;3.95;;;3.70;99.90;;;;;;5050081;28;20448;-61
2023/01/31 11:43:24;;;;;;;15.60;4.30;;;3.90;99.90;;;;;;5050046;28;20110;-62
2023/01/31 11:45:58;;;;;;;17.42;4.05;;;4.00;99.90;;;;;;5050725;28;20032;-61
2023/01/31 11:48:43;;;;;;;18.25;4.45;;;4.00;99.90;;;;;;5048198;28;20075;-62
2023/01/31 11:51:11;;;;;;;18.15;4.82;;;4.00;99.90;;;;;;5051059;28;20036;-62
2023/01/31 11:53:48;;;;;;;13.27;3.55;;;3.80;99.90;;;;;;5050288;28;20033;-62
2023/01/31 11:56:17;;;;;;;12.90;4.18;;;3.80;99.90;;;;;;5050975;28;20053;-62
2023/01/31 11:58:45;;;;;;;14.73;3.80;;;3.90;99.90;;;;;;5049001;28;20045;-61
2023/01/31 12:01:21;;;;;;;15.20;3.95;;;3.90;99.90;;;;;;5051053;28;20033;-62
2023/01/31 12:03:50;;;;;;;14.27;3.60;;;3.90;99.90;;;;;;5050167;28;20033;-62
2023/01/31 12:06:30;;;;;;;14.60;3.63;;;4.00;99.90;;;;;;5050924;28;20107;-62
2023/01/31 12:08:58;;;;;;;12.97;3.80;;;3.90;99.90;;;;;;5049654;28;20071;-62
2023/01/31 12:11:29;;;;;;;20.17;3.97;;;4.00;99.90;;;;;;5050803;28;20319;-61
2023/01/31 12:14:16;;;;;;;15.30;3.97;;;4.10;99.90;;;;;;5050600;28;20029;-62
2023/01/31 12:16:43;;;;;;;17.13;4.40;;;4.10;99.90;;;;;;5049993;28;20032;-62
2023/01/31 12:19:12;;;;;;;15.20;4.45;;;4.10;99.90;;;;;;5049660;28;20067;-61
2023/01/31 12:21:52;;;;;;;15.73;3.85;;;4.10;99.90;;;;;;5048464;28;20033;-60
2023/01/31 12:24:36;;;;;;;17.38;3.63;;;4.10;99.90;;;;;;5050590;28;20040;-62
2023/01/31 12:27:42;;;;;;;13.98;3.55;;;4.00;99.90;;;;;;5049980;28;20041;-62
2023/01/31 12:30:09;;;;;;;14.18;3.60;;;3.90;99.90;;;;;;5047820;28;20041;-62
2023/01/31 12:32:38;;;;;;;15.25;3.65;;;3.90;99.90;;;;;;5048116;28;20390;-61
2023/01/31 12:35:22;;;;;;;16.05;4.03;;;3.90;99.90;;;;;;5050413;28;20036;-63
2023/01/31 12:38:10;;;;;;;16.50;4.35;;;4.00;99.90;;;;;;5049765;28;20321;-62
2023/01/31 12:41:00;;;;;;;18.83;4.55;;;4.00;99.90;;;;;;5049488;28;20021;-62
2023/01/31 12:43:43;;;;;;;14.13;3.72;;;4.10;99.90;;;;;;5048716;28;20044;-62
2023/01/31 12:46:33;;;;;;;12.98;4.03;;;4.20;99.90;;;;;;5048818;28;20373;-60
2023/01/31 12:49:28;;;;;;;12.40;4.43;;;4.20;99.90;;;;;;5032880;28;20036;-62
2023/01/31 12:52:21;;;;;;;12.68;3.35;;;4.20;99.90;;;;;;5049507;28;20033;-62
2023/01/31 12:55:14;;;;;;;14.65;3.67;;;4.40;99.90;;;;;;5049161;28;20064;-63
2023/01/31 12:58:18;;;;;;;14.80;3.33;;;4.30;99.90;;;;;;5047961;28;20044;-62
2023/01/31 13:00:53;;;;;;;19.58;3.65;;;4.20;99.90;;;;;;5026342;28;20131;-62
2023/01/31 13:03:31;;;;;;;10.45;3.60;;;4.20;99.90;;;;;;5027110;28;20418;-62
2023/01/31 13:06:25;;;;;;;11.68;3.22;;;4.10;99.90;;;;;;5040393;28;20040;-62
2023/01/31 13:08:56;;;;;;;11.20;3.10;;;4.10;99.90;;;;;;5047443;28;20094;-62
2023/01/31 13:11:29;;;;;;;13.35;3.22;;;4.00;99.90;;;;;;5049595;28;20120;-61
2023/01/31 13:13:58;;;;;;;15.90;3.97;;;4.00;99.90;;;;;;5049467;28;20040;-61